Time;durP1;ratioP1;P1;durP2;ratioP2;P2;SDS_P1;SDS_P2;PMS_P1;PMS_P2;Temp;Humidity;BMP_temperature;BMP_pressure;BME280_temperature;BME280_humidity;BME280_pressure;Samples;Min_cycle;Max_cycle;Signal;HPM_P1;HPM_P2
2024/01/25 00:02:15;;;;;;;11.47;4.33;;;;;;;10.40;100.00;101560.66;4931572;29;20203;-77
2024/01/25 00:04:40;;;;;;;10.53;4.30;;;;;;;10.39;100.00;101563.22;4932068;29;20233;-76
2024/01/25 00:07:08;;;;;;;9.37;3.80;;;;;;;10.36;100.00;101562.28;4918339;29;20235;-75
2024/01/25 00:09:33;;;;;;;7.83;4.07;;;;;;;10.35;100.00;101558.00;4929165;29;20726;-76
2024/01/25 00:11:58;;;;;;;8.97;3.67;;;;;;;10.35;100.00;101558.00;4930509;29;20214;-76
2024/01/25 00:14:24;;;;;;;10.57;4.20;;;;;;;10.35;100.00;101562.28;4929356;29;20195;-75
2024/01/25 00:16:49;;;;;;;8.57;3.83;;;;;;;10.35;100.00;101560.59;4925716;29;20559;-75
2024/01/25 00:19:14;;;;;;;12.10;4.37;;;;;;;10.36;100.00;101556.25;4928143;29;20844;-76
2024/01/25 00:21:44;;;;;;;10.00;4.10;;;;;;;10.34;100.00;101556.25;4930107;29;20195;-76
2024/01/25 00:24:12;;;;;;;12.30;4.47;;;;;;;10.32;100.00;101552.78;4928726;29;20212;-76
2024/01/25 00:26:37;;;;;;;12.87;4.53;;;;;;;10.31;100.00;101543.28;4929312;29;20245;-76
2024/01/25 00:29:02;;;;;;;12.40;3.70;;;;;;;10.31;100.00;101543.28;4930437;29;20963;-76
2024/01/25 00:31:28;;;;;;;15.07;4.93;;;;;;;10.33;100.00;101548.44;4928466;29;20195;-75
2024/01/25 00:33:53;;;;;;;11.03;4.37;;;;;;;10.31;100.00;101556.22;4929302;29;20199;-75
2024/01/25 00:36:20;;;;;;;10.83;3.73;;;;;;;10.30;100.00;101557.06;4918775;29;20795;-75
2024/01/25 00:38:45;;;;;;;11.60;3.87;;;;;;;10.32;100.00;101560.53;4929180;29;20221;-76
2024/01/25 00:41:17;;;;;;;14.53;4.77;;;;;;;10.39;100.00;101547.69;4925518;29;20217;-75
2024/01/25 00:43:43;;;;;;;10.73;4.27;;;;;;;10.37;100.00;101552.81;4924619;29;20194;-76
2024/01/25 00:46:09;;;;;;;10.07;4.00;;;;;;;10.36;100.00;101562.28;4927847;29;20310;-75
2024/01/25 00:48:35;;;;;;;10.50;3.97;;;;;;;10.39;100.00;101561.50;4931688;29;20215;-75
2024/01/25 00:51:00;;;;;;;9.60;4.23;;;;;;;10.40;100.00;101558.06;4928601;29;20319;-75
2024/01/25 00:53:26;;;;;;;10.47;4.33;;;;;;;10.41;100.00;101561.53;4924262;29;20756;-75
2024/01/25 00:55:52;;;;;;;8.50;3.67;;;;;;;10.41;100.00;101566.69;4925561;29;20247;-76
2024/01/25 00:58:17;;;;;;;13.87;4.83;;;;;;;10.45;100.00;101564.16;4910942;29;20210;-75
2024/01/25 01:00:43;;;;;;;12.67;4.40;;;;;;;10.43;100.00;101557.22;4928943;29;20202;-75
2024/01/25 01:03:09;;;;;;;13.43;3.97;;;;;;;10.43;100.00;101549.47;4919698;29;20213;-77
2024/01/25 01:05:35;;;;;;;12.40;4.33;;;;;;;10.44;100.00;101552.06;4928409;29;20196;-75
2024/01/25 01:08:01;;;;;;;11.57;4.23;;;;;;;10.45;100.00;101556.38;4926077;29;20750;-75
2024/01/25 01:10:26;;;;;;;10.20;3.77;;;;;;;10.46;100.00;101552.09;4928316;29;20286;-75
2024/01/25 01:12:53;;;;;;;12.87;4.47;;;;;;;10.48;100.00;101553.00;4909958;29;20191;-76
2024/01/25 01:15:19;;;;;;;11.83;4.03;;;;;;;10.49;100.00;101558.19;4927250;29;20209;-75
2024/01/25 01:17:45;;;;;;;10.47;3.83;;;;;;;10.51;100.00;101564.25;4918157;29;20690;-75
2024/01/25 01:20:10;;;;;;;11.07;4.33;;;;;;;10.49;100.00;101567.69;4911194;29;20725;-75
2024/01/25 01:22:36;;;;;;;11.30;4.03;;;;;;;10.48;100.00;101564.19;4910245;29;20662;-75
2024/01/25 01:25:01;;;;;;;8.50;3.27;;;;;;;10.49;100.00;101563.34;4927991;29;20192;-76
2024/01/25 01:27:27;;;;;;;12.43;4.33;;;;;;;10.51;100.00;101564.25;4928321;29;20219;-76
2024/01/25 01:29:52;;;;;;;11.27;3.73;;;;;;;10.51;100.00;101560.81;4928180;29;20642;-75
2024/01/25 01:32:17;;;;;;;9.17;3.27;;;;;;;10.52;100.00;101565.09;4913353;29;20828;-76
2024/01/25 01:34:42;;;;;;;12.57;3.93;;;;;;;10.52;100.00;101557.34;4912275;29;20208;-75
2024/01/25 01:37:08;;;;;;;9.73;3.97;;;;;;;10.52;100.00;101560.81;4920026;29;20737;-75
2024/01/25 01:39:33;;;;;;;9.13;3.40;;;;;;;10.52;100.00;101555.63;4924890;29;20212;-76
2024/01/25 01:41:58;;;;;;;14.90;4.90;;;;;;;10.56;100.00;101566.03;4926225;29;20283;-76
2024/01/25 01:44:24;;;;;;;10.33;4.00;;;;;;;10.54;100.00;101552.19;4932431;29;20191;-76
2024/01/25 01:46:50;;;;;;;10.20;4.07;;;;;;;10.54;100.00;101559.97;4931746;29;20202;-76
2024/01/25 01:49:15;;;;;;;9.73;4.17;;;;;;;10.56;100.00;101556.53;4922448;29;20290;-76
2024/01/25 01:51:44;;;;;;;10.40;3.93;;;;;;;10.55;100.00;101564.28;4923882;29;20684;-76
2024/01/25 01:54:10;;;;;;;9.70;3.50;;;;;;;10.53;100.00;101572.00;4920490;29;20692;-77
2024/01/25 01:56:36;;;;;;;9.57;3.30;;;;;;;10.54;100.00;101575.50;4924217;29;20669;-75
2024/01/25 01:59:05;;;;;;;8.33;3.40;;;;;;;10.52;100.00;101573.75;4905676;29;20318;-75
2024/01/25 02:01:30;;;;;;;9.90;3.50;;;;;;;10.52;100.00;101575.44;4920688;29;20229;-75
2024/01/25 02:03:56;;;;;;;8.80;3.30;;;;;;;10.51;100.00;101566.84;4923650;29;20223;-75
2024/01/25 02:06:25;;;;;;;11.07;4.00;;;;;;;10.50;100.00;101567.69;4926839;29;20205;-75
2024/01/25 02:08:52;;;;;;;7.77;3.70;;;;;;;10.51;100.00;101571.16;4932860;29;20250;-75
2024/01/25 02:11:18;;;;;;;11.33;3.83;;;;;;;10.50;100.00;101579.78;4933954;29;20291;-76
2024/01/25 02:13:44;;;;;;;8.60;3.40;;;;;;;10.50;100.00;101572.84;4925001;29;20280;-76
2024/01/25 02:16:09;;;;;;;7.67;3.37;;;;;;;10.50;100.00;101577.19;4912707;29;20192;-76
2024/01/25 02:18:34;;;;;;;5.50;2.60;;;;;;;10.49;100.00;101578.88;4934812;29;20306;-76
2024/01/25 02:21:00;;;;;;;12.70;4.03;;;;;;;10.50;100.00;101572.00;4942692;29;20190;-75
2024/01/25 02:23:26;;;;;;;9.90;3.67;;;;;;;10.48;100.00;101566.78;4926068;29;20737;-77
2024/01/25 02:25:51;;;;;;;9.43;3.60;;;;;;;10.48;100.00;101571.09;4929876;29;20196;-76
2024/01/25 02:28:16;;;;;;;7.60;3.27;;;;;;;10.47;100.00;101569.38;4936063;29;20220;-76
2024/01/25 02:30:42;;;;;;;6.87;3.40;;;;;;;10.47;100.00;101559.03;4931287;29;20225;-76
2024/01/25 02:33:07;;;;;;;7.83;3.03;;;;;;;10.44;100.00;101564.16;4935420;29;20231;-75
2024/01/25 02:35:33;;;;;;;13.60;4.17;;;;;;;10.42;100.00;101563.25;4926728;29;20643;-75
2024/01/25 02:37:58;;;;;;;10.03;3.90;;;;;;;10.41;100.00;101570.16;4912804;29;20283;-77
2024/01/25 02:40:24;;;;;;;13.67;4.73;;;;;;;10.42;100.00;101571.03;4930639;29;20212;-76
2024/01/25 02:42:49;;;;;;;12.10;4.00;;;;;;;10.37;100.00;101569.22;4934982;29;20200;-75
2024/01/25 02:45:14;;;;;;;8.87;3.57;;;;;;;10.37;100.00;101568.34;4928537;29;20196;-77
2024/01/25 02:47:40;;;;;;;8.37;3.23;;;;;;;10.36;100.00;101577.81;4931278;29;20298;-77
2024/01/25 02:50:06;;;;;;;8.53;3.63;;;;;;;10.35;100.00;101570.03;4929431;29;20282;-76
2024/01/25 02:52:31;;;;;;;8.83;3.90;;;;;;;10.34;100.00;101576.06;4930894;29;20285;-75
2024/01/25 02:54:56;;;;;;;8.10;3.13;;;;;;;10.33;100.00;101582.97;4928399;29;20189;-75
2024/01/25 02:57:21;;;;;;;9.63;3.50;;;;;;;10.32;100.00;101573.47;4929233;29;20220;-75
2024/01/25 02:59:47;;;;;;;10.43;3.60;;;;;;;10.33;100.00;101575.22;4928603;29;20683;-75
2024/01/25 03:02:13;;;;;;;9.10;3.43;;;;;;;10.31;100.00;101573.44;4931506;29;20678;-75
2024/01/25 03:04:38;;;;;;;10.17;4.00;;;;;;;10.30;100.00;101580.34;4931048;29;20246;-76
2024/01/25 03:07:04;;;;;;;8.20;3.43;;;;;;;10.29;100.00;101583.78;4932721;29;20204;-75
2024/01/25 03:09:29;;;;;;;12.97;4.20;;;;;;;10.28;100.00;101574.28;4931040;29;20191;-76
2024/01/25 03:11:54;;;;;;;8.10;3.70;;;;;;;10.28;100.00;101574.28;4927980;29;20210;-76
2024/01/25 03:14:20;;;;;;;8.53;3.30;;;;;;;10.28;100.00;101578.59;4915851;29;20247;-75
2024/01/25 03:16:45;;;;;;;9.77;3.43;;;;;;;10.27;100.00;101584.63;4933501;29;20269;-75
2024/01/25 03:19:11;;;;;;;7.90;3.27;;;;;;;10.26;100.00;101570.78;4942703;29;20814;-75
2024/01/25 03:21:36;;;;;;;7.70;3.30;;;;;;;10.25;100.00;101581.13;4930006;29;20284;-75
2024/01/25 03:24:02;;;;;;;8.73;3.73;;;;;;;10.21;100.00;101573.31;4932221;29;20558;-75
2024/01/25 03:26:28;;;;;;;12.37;4.23;;;;;;;10.21;100.00;101582.78;4930433;29;20231;-77
2024/01/25 03:28:53;;;;;;;7.57;3.40;;;;;;;10.18;100.00;101580.19;4928071;29;20243;-75
2024/01/25 03:31:18;;;;;;;8.90;3.60;;;;;;;10.16;100.00;101585.31;4929919;29;20207;-76
2024/01/25 03:33:43;;;;;;;7.93;3.67;;;;;;;10.14;100.00;101594.78;4921107;29;20196;-76
2024/01/25 03:36:09;;;;;;;9.37;3.80;;;;;;;10.12;100.00;101596.50;4935614;29;20223;-76
2024/01/25 03:38:34;;;;;;;8.60;3.30;;;;;;;10.11;100.00;101604.22;4934969;28;20674;-76
2024/01/25 03:40:59;;;;;;;9.07;3.50;;;;;;;10.10;100.00;101599.88;4945001;29;20652;-76
2024/01/25 03:43:25;;;;;;;8.00;3.17;;;;;;;10.07;100.00;101601.59;4936735;29;20201;-75
2024/01/25 03:45:51;;;;;;;12.37;4.17;;;;;;;10.06;100.00;101606.75;4924442;29;20202;-75
2024/01/25 03:48:16;;;;;;;8.47;3.33;;;;;;;10.02;100.00;101600.66;4927439;29;20221;-77
2024/01/25 03:50:41;;;;;;;12.57;4.37;;;;;;;10.02;100.00;101610.13;4929433;29;20199;-76
2024/01/25 03:53:07;;;;;;;8.73;3.33;;;;;;;10.00;100.00;101622.16;4938180;29;20199;-76
2024/01/25 03:55:32;;;;;;;12.53;3.93;;;;;;;9.99;100.00;101625.59;4928414;29;20192;-76
2024/01/25 03:57:58;;;;;;;8.10;3.30;;;;;;;9.95;100.00;101622.09;4928400;29;20212;-76
2024/01/25 04:00:23;;;;;;;12.33;4.63;;;;;;;9.91;100.00;101616.00;4930199;29;20231;-75
2024/01/25 04:02:48;;;;;;;14.30;5.00;;;;;;;9.88;100.00;101617.69;4928138;29;20244;-75
2024/01/25 04:05:14;;;;;;;11.43;4.13;;;;;;;9.82;100.00;101618.47;4929272;29;20199;-76
2024/01/25 04:07:40;;;;;;;9.73;4.70;;;;;;;9.79;100.00;101623.59;4930765;29;20611;-76
2024/01/25 04:10:05;;;;;;;10.87;4.27;;;;;;;9.75;100.00;101625.25;4928503;29;20235;-75
2024/01/25 04:12:32;;;;;;;11.37;4.30;;;;;;;9.72;100.00;101624.31;4927151;29;20205;-75
2024/01/25 04:14:57;;;;;;;10.20;4.10;;;;;;;9.69;100.00;101624.25;4924836;29;20812;-76
2024/01/25 04:17:23;;;;;;;14.37;4.80;;;;;;;9.69;100.00;101626.84;4932181;29;20227;-76
2024/01/25 04:19:48;;;;;;;13.90;4.63;;;;;;;9.64;100.00;101633.69;4924789;29;20267;-77
2024/01/25 04:22:13;;;;;;;10.53;3.83;;;;;;;9.60;100.00;101625.00;4931155;29;20204;-75
2024/01/25 04:24:39;;;;;;;11.17;4.17;;;;;;;9.58;100.00;101629.28;4934741;29;20219;-76
2024/01/25 04:27:04;;;;;;;12.23;4.03;;;;;;;9.57;100.00;101627.53;4924766;29;20206;-77
2024/01/25 04:29:30;;;;;;;10.63;4.00;;;;;;;9.56;100.00;101626.66;4909226;29;20277;-76
2024/01/25 04:31:56;;;;;;;7.70;3.73;;;;;;;9.55;100.00;101631.81;4929586;29;20733;-76
2024/01/25 04:34:21;;;;;;;9.73;3.53;;;;;;;9.55;100.00;101637.84;4937678;29;20191;-75
2024/01/25 04:36:46;;;;;;;9.00;3.40;;;;;;;9.54;100.00;101649.00;4928465;29;20203;-75
2024/01/25 04:39:11;;;;;;;11.90;4.30;;;;;;;9.54;100.00;101640.41;4929087;29;20665;-77
2024/01/25 04:41:37;;;;;;;10.97;3.73;;;;;;;9.54;100.00;101638.69;4929431;29;20199;-76
2024/01/25 04:44:02;;;;;;;6.33;3.00;;;;;;;9.53;100.00;101652.44;4916375;29;20195;-76
2024/01/25 04:46:28;;;;;;;5.00;2.83;;;;;;;9.52;100.00;101657.59;4933070;29;20199;-76
2024/01/25 04:48:53;;;;;;;7.50;3.33;;;;;;;9.53;100.00;101660.19;4930870;29;20299;-76
2024/01/25 04:51:22;;;;;;;8.23;3.33;;;;;;;9.54;100.00;101664.53;4928028;29;20187;-76
2024/01/25 04:53:47;;;;;;;9.73;3.33;;;;;;;9.53;100.00;101660.19;4930225;29;20202;-75
2024/01/25 04:56:12;;;;;;;8.97;3.50;;;;;;;9.53;100.00;101664.50;4931019;29;20206;-76
2024/01/25 04:58:38;;;;;;;7.10;2.87;;;;;;;9.52;100.00;101670.53;4927240;29;20229;-75
2024/01/25 05:01:03;;;;;;;7.93;3.30;;;;;;;9.51;100.00;101664.50;4927981;29;20626;-75
2024/01/25 05:03:29;;;;;;;10.67;4.20;;;;;;;9.51;100.00;101661.03;4932825;29;20192;-76
2024/01/25 05:05:54;;;;;;;14.97;4.70;;;;;;;9.48;100.00;101659.25;4943213;29;20213;-75
2024/01/25 05:08:19;;;;;;;8.47;3.27;;;;;;;9.43;100.00;101654.03;4930836;29;20931;-76
2024/01/25 05:10:45;;;;;;;10.37;3.57;;;;;;;9.40;100.00;101659.13;4928928;29;20197;-76
2024/01/25 05:13:10;;;;;;;6.63;2.97;;;;;;;9.38;100.00;101658.22;4927423;29;20371;-75
2024/01/25 05:15:36;;;;;;;10.90;3.87;;;;;;;9.36;100.00;101659.91;4925350;29;20227;-76
2024/01/25 05:18:02;;;;;;;8.43;3.33;;;;;;;9.34;100.00;101650.41;4935198;29;20215;-75
2024/01/25 05:20:32;;;;;;;9.97;3.93;;;;;;;9.29;100.00;101658.06;4931585;29;20315;-75
2024/01/25 05:23:01;;;;;;;11.60;3.97;;;;;;;9.25;100.00;101658.84;4923369;29;20197;-76
2024/01/25 05:25:27;;;;;;;8.87;3.90;;;;;;;9.19;100.00;101663.88;4921397;29;20223;-76
2024/01/25 05:27:53;;;;;;;10.70;3.73;;;;;;;9.13;100.00;101668.13;4922015;29;20295;-76
2024/01/25 05:30:18;;;;;;;10.93;4.20;;;;;;;9.09;100.00;101674.06;4926987;29;20192;-77
2024/01/25 05:32:45;;;;;;;9.80;3.93;;;;;;;9.02;100.00;101669.59;4915533;29;20192;-76
2024/01/25 05:35:11;;;;;;;9.23;3.47;;;;;;;8.94;100.00;101661.69;4927262;29;20471;-76
2024/01/25 05:37:36;;;;;;;12.90;3.80;;;;;;;8.88;100.00;101665.88;4910302;29;20965;-76
2024/01/25 05:40:01;;;;;;;14.97;5.00;;;;;;;8.78;100.00;101673.44;4930123;29;20243;-76
2024/01/25 05:42:27;;;;;;;12.57;4.23;;;;;;;8.71;100.00;101683.59;4924070;29;20202;-76
2024/01/25 05:44:52;;;;;;;11.90;3.97;;;;;;;8.64;100.00;101677.44;4925025;29;20275;-75
2024/01/25 05:47:18;;;;;;;10.13;3.73;;;;;;;8.56;100.00;101685.00;4927826;29;20211;-76
2024/01/25 05:49:43;;;;;;;15.60;4.10;;;;;;;8.47;100.00;101693.38;4929456;29;20747;-76
2024/01/25 05:52:08;;;;;;;9.77;3.50;;;;;;;8.39;100.00;101690.63;4927420;29;20304;-76
2024/01/25 05:54:34;;;;;;;11.87;3.87;;;;;;;8.31;100.00;101697.34;4929247;29;20211;-75
2024/01/25 05:56:59;;;;;;;12.13;3.97;;;;;;;8.24;100.00;101705.75;4930996;29;20202;-75
2024/01/25 05:59:24;;;;;;;11.80;3.83;;;;;;;8.16;100.00;101705.56;4930039;29;20674;-77
2024/01/25 06:01:50;;;;;;;10.37;3.67;;;;;;;8.09;100.00;101698.53;4928141;29;20190;-76
2024/01/25 06:04:15;;;;;;;5.77;2.70;;;;;;;8.03;100.00;101693.22;4928467;29;20195;-73
2024/01/25 06:06:41;;;;;;;7.73;3.10;;;;;;;7.98;100.00;101700.84;4926357;29;20752;-75
2024/01/25 06:09:07;;;;;;;7.20;3.67;;;;;;;7.90;100.00;101689.47;4922960;29;20744;-76
2024/01/25 06:11:33;;;;;;;10.10;3.70;;;;;;;7.84;100.00;101692.75;4924529;29;20903;-76
2024/01/25 06:13:58;;;;;;;8.37;3.03;;;;;;;7.80;100.00;101690.06;4923661;29;20195;-75
2024/01/25 06:16:23;;;;;;;11.47;3.90;;;;;;;7.75;100.00;101690.81;4927626;29;20774;-77
2024/01/25 06:18:49;;;;;;;12.20;3.93;;;;;;;7.71;100.00;101694.19;4920992;29;20218;-76
2024/01/25 06:21:14;;;;;;;7.67;3.10;;;;;;;7.68;100.00;101698.34;4925393;29;20210;-76
2024/01/25 06:23:40;;;;;;;7.60;3.27;;;;;;;7.61;100.00;101689.59;4927691;29;20618;-76
2024/01/25 06:26:05;;;;;;;8.93;3.60;;;;;;;7.57;100.00;101701.53;4925542;29;20202;-77
2024/01/25 06:28:31;;;;;;;9.87;3.97;;;;;;;7.52;100.00;101695.38;4925752;29;20823;-77
2024/01/25 06:30:56;;;;;;;10.80;4.43;;;;;;;7.51;100.00;101696.22;4926192;29;20203;-76
2024/01/25 06:33:21;;;;;;;12.77;3.77;;;;;;;7.50;100.00;101693.59;4919782;29;20195;-75
2024/01/25 06:35:47;;;;;;;13.60;4.70;;;;;;;7.50;100.00;101694.47;4911782;29;20196;-76
2024/01/25 06:38:13;;;;;;;12.23;4.53;;;;;;;7.48;100.00;101691.88;4925574;29;20222;-78
2024/01/25 06:40:38;;;;;;;14.83;4.77;;;;;;;7.47;100.00;101702.13;4926202;29;20218;-76
2024/01/25 06:43:03;;;;;;;9.60;3.47;;;;;;;7.42;100.00;101694.25;4928033;29;20680;-76
2024/01/25 06:45:29;;;;;;;13.47;4.00;;;;;;;7.40;100.00;101695.94;4921862;29;20250;-76
2024/01/25 06:47:54;;;;;;;12.53;4.13;;;;;;;7.39;100.00;101699.34;4932253;29;20206;-75
2024/01/25 06:50:20;;;;;;;11.53;4.17;;;;;;;7.35;100.00;101696.63;4927045;29;20602;-75
2024/01/25 06:52:45;;;;;;;9.47;4.77;;;;;;;7.33;100.00;101699.19;4921445;29;20198;-75
2024/01/25 06:55:10;;;;;;;10.30;4.70;;;;;;;7.32;100.00;101706.03;4927406;29;20203;-77
2024/01/25 06:57:36;;;;;;;17.10;9.67;;;;;;;7.28;100.00;101701.63;4928270;29;20793;-76
2024/01/25 07:00:01;;;;;;;17.53;9.43;;;;;;;7.25;100.00;101698.97;4921141;29;20219;-76
2024/01/25 07:02:26;;;;;;;11.93;6.13;;;;;;;7.26;100.00;101697.28;4926790;29;20215;-76
2024/01/25 07:04:53;;;;;;;11.87;5.07;;;;;;;7.24;100.00;101698.94;4937234;29;20199;-75
2024/01/25 07:07:19;;;;;;;13.47;4.50;;;;;;;7.21;100.00;101694.56;4933298;29;20246;-76
2024/01/25 07:09:44;;;;;;;9.30;3.77;;;;;;;7.19;100.00;101696.22;4930336;29;20194;-76
2024/01/25 07:12:09;;;;;;;7.57;3.83;;;;;;;7.17;100.00;101703.06;4929013;29;20251;-76
2024/01/25 07:14:35;;;;;;;7.93;3.50;;;;;;;7.14;100.00;101688.38;4930077;29;20194;-76
2024/01/25 07:17:00;;;;;;;8.87;3.87;;;;;;;7.12;100.00;101691.75;4937124;29;20191;-76
2024/01/25 07:19:25;;;;;;;11.83;4.03;;;;;;;7.09;100.00;101702.84;4931506;29;20246;-76
2024/01/25 07:21:51;;;;;;;12.30;4.17;;;;;;;7.09;100.00;101701.94;4935590;29;20619;-77
2024/01/25 07:24:16;;;;;;;9.90;3.80;;;;;;;7.11;100.00;101692.56;4932040;29;20233;-75
2024/01/25 07:26:41;;;;;;;9.37;3.50;;;;;;;7.10;100.00;101693.41;4932422;29;20613;-77
2024/01/25 07:29:07;;;;;;;7.13;3.33;;;;;;;7.10;100.00;101694.28;4930989;29;20250;-75
2024/01/25 07:31:32;;;;;;;9.50;3.90;;;;;;;7.12;100.00;101697.75;4924003;29;20195;-76
2024/01/25 07:33:57;;;;;;;12.67;4.50;;;;;;;7.12;100.00;101695.16;4918173;29;20271;-77
2024/01/25 07:36:23;;;;;;;8.00;3.83;;;;;;;7.14;100.00;101692.66;4918527;29;21009;-75
2024/01/25 07:38:48;;;;;;;9.00;3.47;;;;;;;7.15;100.00;101695.25;4930817;29;20327;-75
2024/01/25 07:41:15;;;;;;;9.33;3.93;;;;;;;7.17;100.00;101703.06;4929748;29;20686;-75
2024/01/25 07:43:40;;;;;;;10.47;4.43;;;;;;;7.17;100.00;101700.47;4915949;29;20250;-75
2024/01/25 07:46:06;;;;;;;7.30;4.33;;;;;;;7.24;100.00;101699.78;4929489;29;20199;-75
2024/01/25 07:48:31;;;;;;;9.33;4.97;;;;;;;7.21;100.00;101704.00;4930542;29;20278;-75
2024/01/25 07:50:57;;;;;;;7.43;4.33;;;;;;;7.20;100.00;101703.09;4930998;29;20260;-76
2024/01/25 07:53:22;;;;;;;14.40;6.77;;;;;;;7.28;100.00;101705.91;4930818;29;20227;-75
2024/01/25 07:55:48;;;;;;;12.13;7.10;;;;;;;7.31;100.00;101701.72;4935082;29;20193;-76
2024/01/25 07:58:15;;;;;;;12.43;7.07;;;;;;;7.30;100.00;101707.69;4930609;29;20227;-76
2024/01/25 08:00:40;;;;;;;10.50;5.90;;;;;;;7.35;100.00;101707.81;4913063;29;20305;-76
2024/01/25 08:03:05;;;;;;;13.70;7.77;;;;;;;7.43;100.00;101711.47;4913294;29;20267;-76
2024/01/25 08:05:30;;;;;;;17.17;8.40;;;;;;;7.47;100.00;101713.28;4912208;29;20218;-76
2024/01/25 08:07:56;;;;;;;15.30;9.07;;;;;;;7.56;100.00;101717.81;4912831;29;20233;-76
2024/01/25 08:10:21;;;;;;;13.37;8.10;;;;;;;7.63;100.00;101722.31;4910905;29;20195;-76
2024/01/25 08:12:47;;;;;;;14.10;7.60;;;;;;;7.65;100.00;101721.47;4913792;29;20198;-77
2024/01/25 08:15:13;;;;;;;11.20;5.73;;;;;;;7.69;100.00;101737.06;4922172;29;20726;-76
2024/01/25 08:17:38;;;;;;;8.97;5.17;;;;;;;7.76;100.00;101730.38;4923649;29;20335;-77
2024/01/25 08:20:06;;;;;;;12.13;5.00;;;;;;;7.78;100.00;101731.28;4930372;29;20203;-75
2024/01/25 08:22:31;;;;;;;8.20;4.40;;;;;;;7.79;100.00;101727.84;4931219;29;20215;-76
2024/01/25 08:24:57;;;;;;;8.40;4.60;;;;;;;7.83;100.00;101723.66;4941860;29;20195;-76
2024/01/25 08:27:22;;;;;;;12.00;6.03;;;;;;;7.87;100.00;101731.50;4931645;29;20671;-75
2024/01/25 08:29:47;;;;;;;10.70;5.00;;;;;;;7.92;100.00;101717.03;4913662;29;20298;-75
2024/01/25 08:32:13;;;;;;;7.57;3.90;;;;;;;7.93;100.00;101712.75;4929907;29;20192;-75
2024/01/25 08:34:38;;;;;;;7.23;3.27;;;;;;;7.98;100.00;101718.91;4913282;29;20744;-76
2024/01/25 08:37:03;;;;;;;8.10;3.37;;;;;;;8.00;100.00;101713.75;4921427;29;20658;-75
2024/01/25 08:39:29;;;;;;;7.07;2.70;;;;;;;8.00;100.00;101716.34;4929054;29;20277;-75
2024/01/25 08:41:54;;;;;;;6.50;3.07;;;;;;;8.03;100.00;101712.13;4917267;29;20195;-76
2024/01/25 08:44:20;;;;;;;5.17;3.03;;;;;;;8.07;100.00;101710.53;4927266;29;20279;-75
2024/01/25 08:46:45;;;;;;;9.33;3.60;;;;;;;8.20;100.00;101707.41;4929738;29;20201;-76
2024/01/25 08:49:12;;;;;;;9.43;3.33;;;;;;;8.27;100.00;101717.84;4925357;29;20275;-77
2024/01/25 08:51:37;;;;;;;6.47;3.00;;;;;;;8.31;100.00;101719.66;4922808;29;20192;-75
2024/01/25 08:54:03;;;;;;;5.93;3.10;;;;;;;8.35;100.00;101718.91;4932564;29;20210;-76
2024/01/25 08:56:29;;;;;;;6.33;2.70;;;;;;;8.42;100.00;101718.19;4926950;29;20279;-76
2024/01/25 08:58:54;;;;;;;9.00;3.20;;;;;;;8.50;100.00;101713.25;4928861;29;20238;-75
2024/01/25 09:01:19;;;;;;;9.50;3.50;;;;;;;8.56;100.00;101713.41;4922053;29;20262;-76
2024/01/25 09:03:45;;;;;;;9.73;3.80;;;;;;;8.65;100.00;101725.63;4931663;29;20385;-76
2024/01/25 09:06:10;;;;;;;6.87;2.97;;;;;;;8.71;100.00;101717.16;4929489;29;20269;-76
2024/01/25 09:08:35;;;;;;;7.10;2.93;;;;;;;8.77;100.00;101725.91;4928228;29;20643;-76
2024/01/25 09:11:01;;;;;;;6.40;3.27;;;;;;;8.83;100.00;101722.56;4927621;29;20206;-76
2024/01/25 09:13:26;;;;;;;11.90;3.67;;;;;;;8.93;100.00;101728.81;4929425;29;20253;-76
2024/01/25 09:15:51;;;;;;;8.27;2.93;;;;;;;8.97;100.00;101734.06;4926522;29;20191;-77
2024/01/25 09:18:17;;;;;;;8.60;3.13;;;;;;;9.06;100.00;101732.53;4930692;29;20908;-75
2024/01/25 09:20:47;;;;;;;8.63;3.40;;;;;;;9.14;100.00;101739.59;4926415;29;20277;-76
2024/01/25 09:23:16;;;;;;;5.60;2.70;;;;;;;9.25;100.00;101744.09;4923610;29;20226;-76
2024/01/25 09:25:42;;;;;;;8.77;3.47;;;;;;;9.34;100.00;101740.81;4927588;29;20196;-77
2024/01/25 09:28:08;;;;;;;8.43;3.13;;;;;;;9.40;100.00;101741.81;4920420;29;20252;-76
2024/01/25 09:30:33;;;;;;;8.33;3.03;;;;;;;9.49;100.00;101746.28;4924515;29;20195;-76
2024/01/25 09:32:58;;;;;;;7.93;3.03;;;;;;;9.59;100.00;101742.16;4927534;29;20306;-76
2024/01/25 09:35:24;;;;;;;8.47;2.87;;;;;;;9.73;100.00;101737.22;4927484;29;20207;-76
2024/01/25 09:37:52;;;;;;;8.17;3.37;;;;;;;9.87;100.00;101729.72;4926600;29;20215;-78
2024/01/25 09:40:20;;;;;;;8.27;3.60;;;;;;;10.07;100.00;101740.41;4918549;29;20227;-76
2024/01/25 09:42:47;;;;;;;7.17;3.20;;;;;;;10.28;100.00;101737.28;4925711;29;20254;-75
2024/01/25 09:45:16;;;;;;;7.17;3.53;;;;;;;10.37;100.00;101746.91;4921939;29;20242;-76
2024/01/25 09:47:42;;;;;;;8.60;3.30;;;;;;;10.32;100.00;101758.91;4922406;29;20222;-76
2024/01/25 09:50:08;;;;;;;6.83;3.33;;;;;;;10.34;100.00;101762.38;4919958;29;20270;-76
2024/01/25 09:52:34;;;;;;;9.80;4.50;;;;;;;10.41;100.00;101755.63;4920517;29;20206;-76
2024/01/25 09:55:00;;;;;;;7.43;3.20;;;;;;;10.44;100.00;101753.94;4930688;29;20278;-76
2024/01/25 09:57:27;;;;;;;6.23;3.17;;;;;;;10.65;100.00;101752.53;4925200;29;20279;-77
2024/01/25 09:59:55;;;;;;;6.73;3.40;;;;;;;10.80;100.00;101752.75;4910199;29;20210;-77
2024/01/25 10:02:20;;;;;;;4.80;2.73;;;;;;;11.17;100.00;101754.06;4925077;29;20197;-77
2024/01/25 10:04:52;;;;;;;6.20;2.87;;;;;;;11.47;100.00;101763.91;4922359;29;20213;-75
2024/01/25 10:07:38;;;;;;;6.37;2.90;;;;;;;11.71;100.00;101757.28;4927078;29;20228;-76
2024/01/25 10:10:05;;;;;;;7.37;2.93;;;;;;;11.94;100.00;101748.81;4922601;29;20190;-76
2024/01/25 10:12:31;;;;;;;6.70;2.90;;;;;;;11.97;100.00;101751.44;4921589;29;20198;-76
2024/01/25 10:14:56;;;;;;;8.03;2.87;;;;;;;11.69;100.00;101749.44;4915891;29;20198;-76
2024/01/25 10:17:21;;;;;;;8.57;3.50;;;;;;;11.77;100.00;101748.66;4926196;29;20232;-75
2024/01/25 10:19:47;;;;;;;5.97;2.80;;;;;;;11.82;100.00;101741.78;4925752;29;20635;-76
2024/01/25 10:22:12;;;;;;;5.53;2.90;;;;;;;11.96;100.00;101749.72;4924816;29;20182;-76
2024/01/25 10:24:39;;;;;;;6.27;2.97;;;;;;;12.08;100.00;101743.78;4928288;29;20224;-76
2024/01/25 10:27:04;;;;;;;4.17;2.40;;;;;;;12.24;100.00;101735.28;4923635;29;20207;-76
2024/01/25 10:29:30;;;;;;;6.97;3.07;;;;;;;12.23;100.00;101735.25;4929226;29;20184;-76
2024/01/25 10:31:55;;;;;;;6.80;3.20;;;;;;;12.25;100.00;101729.19;4907098;29;20193;-76
2024/01/25 10:34:25;;;;;;;7.97;2.70;;;;;;;12.47;100.00;101730.25;4907466;29;20194;-77
2024/01/25 10:36:51;;;;;;;7.30;2.97;;;;;;;12.57;100.00;101732.88;4926593;29;20192;-76
2024/01/25 10:39:18;;;;;;;6.73;2.50;;;;;;;12.68;100.00;101727.75;4931859;28;20272;-75
2024/01/25 10:41:50;;;;;;;5.80;2.57;;;;;;;12.73;100.00;101742.50;4932341;29;20190;-76
2024/01/25 10:44:15;;;;;;;5.87;2.50;;;;;;;12.80;100.00;101736.47;4914985;29;20218;-77
2024/01/25 10:46:42;;;;;;;7.23;3.13;;;;;;;12.87;100.00;101734.75;4918102;29;20262;-76
2024/01/25 10:49:07;;;;;;;5.50;2.73;;;;;;;12.78;100.00;101743.38;4932512;29;20777;-75
2024/01/25 10:51:33;;;;;;;6.73;3.30;;;;;;;12.74;100.00;101735.56;4930534;29;20265;-76
2024/01/25 10:54:00;;;;;;;5.57;2.50;;;;;;;12.79;100.00;101737.31;4931086;29;20326;-77
2024/01/25 10:56:26;;;;;;;6.47;2.80;;;;;;;12.79;100.00;101726.94;4916795;29;20231;-76
2024/01/25 10:58:51;;;;;;;7.20;2.83;;;;;;;12.80;100.00;101723.47;4931563;29;20226;-78
2024/01/25 11:01:17;;;;;;;6.10;2.97;;;;;;;12.84;100.00;101718.28;4931722;29;20196;-77
2024/01/25 11:03:46;;;;;;;8.37;3.33;;;;;;;12.84;100.00;101719.19;4935075;29;20190;-76
2024/01/25 11:06:12;;;;;;;10.87;4.00;;;;;;;12.69;100.00;101714.75;4931156;29;20195;-75
2024/01/25 11:08:38;;;;;;;9.97;4.30;;;;;;;12.62;100.00;101724.25;4930069;29;20658;-76
2024/01/25 11:11:08;;;;;;;5.57;2.80;;;;;;;12.65;100.00;101720.78;4923418;29;20195;-75